createdAt,value
2023-03-29T00:01:44.801Z,27.80
2023-03-29T00:04:53.152Z,30.10
2023-03-29T00:11:44.317Z,26.10
2023-03-29T00:14:50.404Z,28.50
2023-03-29T00:18:08.608Z,32.10
2023-03-29T00:21:59.848Z,34.50
2023-03-29T00:25:38.446Z,34.90
2023-03-29T00:29:05.997Z,30.50
2023-03-29T00:32:45.975Z,32.60
2023-03-29T00:36:08.859Z,31.20
2023-03-29T00:39:52.894Z,31.90
2023-03-29T00:43:22.189Z,29.70
2023-03-29T00:47:16.194Z,30.00
2023-03-29T00:51:12.193Z,32.80
2023-03-29T00:54:33.337Z,32.80
2023-03-29T00:57:57.750Z,32.40
2023-03-29T01:01:35.324Z,31.90
2023-03-29T01:04:48.269Z,30.10
2023-03-29T01:07:58.299Z,32.30
2023-03-29T01:10:49.796Z,32.00
2023-03-29T01:13:41.677Z,35.30
2023-03-29T01:16:28.707Z,30.60
2023-03-29T01:19:17.888Z,32.80
2023-03-29T01:22:09.666Z,36.40
2023-03-29T01:25:18.025Z,31.30
2023-03-29T01:28:07.620Z,29.00
2023-03-29T01:30:57.235Z,38.70
2023-03-29T01:33:49.316Z,35.00
2023-03-29T01:36:40.881Z,44.30
2023-03-29T01:39:24.619Z,41.20
2023-03-29T01:42:16.948Z,35.20
2023-03-29T01:45:38.536Z,35.50
2023-03-29T01:48:43.135Z,37.00
2023-03-29T01:51:35.977Z,31.40
2023-03-29T01:54:24.505Z,36.20
2023-03-29T01:57:10.495Z,34.60
2023-03-29T01:59:57.683Z,35.80
2023-03-29T02:02:43.923Z,37.20
2023-03-29T02:05:32.225Z,48.50
2023-03-29T02:08:17.767Z,35.30
2023-03-29T02:11:03.172Z,36.50
2023-03-29T02:13:51.240Z,36.10
2023-03-29T02:16:36.927Z,40.90
2023-03-29T02:19:21.853Z,37.30
2023-03-29T02:22:10.352Z,39.30
2023-03-29T02:24:59.496Z,37.70
2023-03-29T02:27:47.323Z,46.00
2023-03-29T02:31:03.465Z,36.40
2023-03-29T02:33:52.226Z,40.60
2023-03-29T02:36:46.788Z,43.00
2023-03-29T02:39:33.728Z,38.30
2023-03-29T02:42:20.575Z,39.90
2023-03-29T02:45:05.422Z,37.70
2023-03-29T02:48:17.355Z,37.50
2023-03-29T02:51:06.120Z,40.60
2023-03-29T02:53:53.335Z,36.50
2023-03-29T02:56:48.674Z,41.90
2023-03-29T02:59:32.274Z,33.60
2023-03-29T03:02:15.858Z,40.40
2023-03-29T03:04:59.339Z,40.60
2023-03-29T03:07:42.794Z,39.60
2023-03-29T03:10:26.279Z,38.10
2023-03-29T03:13:09.493Z,46.10
2023-03-29T03:15:52.561Z,41.10
2023-03-29T03:18:35.660Z,37.70
2023-03-29T03:21:18.966Z,41.90
2023-03-29T03:24:02.285Z,48.10
2023-03-29T03:26:46.514Z,47.10
2023-03-29T03:29:29.939Z,50.60
2023-03-29T03:32:50.935Z,50.80
2023-03-29T03:35:52.967Z,47.90
2023-03-29T03:38:37.623Z,45.60
2023-03-29T03:41:21.068Z,56.40
2023-03-29T03:44:04.414Z,51.00
2023-03-29T03:46:47.704Z,54.00
2023-03-29T03:49:32.663Z,56.20
2023-03-29T03:52:16.528Z,54.20
2023-03-29T03:54:59.618Z,53.70
2023-03-29T03:58:11.868Z,52.80
2023-03-29T04:00:55.143Z,53.70
2023-03-29T04:03:57.427Z,62.20
2023-03-29T04:06:43.165Z,67.60
2023-03-29T04:09:35.400Z,54.70
2023-03-29T04:12:38.701Z,63.60
2023-03-29T04:15:22.914Z,65.90
2023-03-29T04:18:12.575Z,67.00
2023-03-29T04:21:01.371Z,79.60
2023-03-29T04:23:46.670Z,76.40
2023-03-29T04:26:30.640Z,70.90
2023-03-29T04:29:22.042Z,69.20
2023-03-29T04:32:12.118Z,68.80
2023-03-29T04:35:27.766Z,71.90
2023-03-29T04:38:11.708Z,66.10
2023-03-29T04:40:55.265Z,61.30
2023-03-29T04:43:56.963Z,76.00
2023-03-29T04:46:42.995Z,72.70
2023-03-29T04:49:46.566Z,74.70
2023-03-29T04:52:36.242Z,69.80
2023-03-29T04:55:19.979Z,68.70
2023-03-29T04:58:32.218Z,66.00
2023-03-29T05:01:15.892Z,69.90
2023-03-29T05:04:06.202Z,67.10
2023-03-29T05:06:54.810Z,71.00
2023-03-29T05:09:38.527Z,74.30
2023-03-29T05:12:21.520Z,76.70
2023-03-29T05:15:09.724Z,75.90
2023-03-29T05:17:53.707Z,73.40
2023-03-29T05:20:37.918Z,75.80
2023-03-29T05:23:22.042Z,80.30
2023-03-29T05:26:24.025Z,67.30
2023-03-29T05:29:09.246Z,72.30
2023-03-29T05:31:52.928Z,76.20
2023-03-29T05:34:36.602Z,67.40
2023-03-29T05:37:19.725Z,77.00
2023-03-29T05:40:08.585Z,77.90
2023-03-29T05:43:02.970Z,70.80
2023-03-29T05:45:45.967Z,71.60
2023-03-29T05:48:29.496Z,71.40
2023-03-29T05:51:12.710Z,69.10
2023-03-29T05:53:55.981Z,57.50
2023-03-29T05:56:38.884Z,62.60
2023-03-29T06:02:06.905Z,50.40
2023-03-29T06:04:51.956Z,48.10
2023-03-29T06:07:41.001Z,48.50
2023-03-29T06:10:43.302Z,53.20
2023-03-29T06:13:44.127Z,41.20
2023-03-29T06:16:27.254Z,39.70
2023-03-29T06:19:10.575Z,37.00
2023-03-29T06:21:54.407Z,40.10
2023-03-29T06:24:40.526Z,33.70
2023-03-29T06:27:28.034Z,28.60
2023-03-29T06:30:14.666Z,31.10
2023-03-29T06:33:01.180Z,33.60
2023-03-29T06:36:12.188Z,29.00
2023-03-29T06:38:55.496Z,28.70
2023-03-29T06:42:21.188Z,27.40
2023-03-29T06:45:29.308Z,27.40
2023-03-29T06:48:12.690Z,30.10
2023-03-29T06:50:57.024Z,30.20
2023-03-29T06:53:43.842Z,27.70
2023-03-29T06:56:27.324Z,29.60
2023-03-29T06:59:18.314Z,27.00
2023-03-29T07:02:14.028Z,25.90
2023-03-29T07:05:12.028Z,24.60
2023-03-29T07:08:13.937Z,22.30
2023-03-29T07:11:14.800Z,27.90
2023-03-29T07:14:18.066Z,20.60
2023-03-29T07:17:01.520Z,23.10
2023-03-29T07:19:54.283Z,23.20
2023-03-29T07:23:15.869Z,23.50
2023-03-29T07:26:00.386Z,19.70
2023-03-29T07:28:43.797Z,24.90
2023-03-29T07:31:29.759Z,22.00
2023-03-29T07:34:23.023Z,21.60
2023-03-29T07:37:07.308Z,20.90
2023-03-29T07:39:51.463Z,19.90
2023-03-29T07:43:09.063Z,16.90
2023-03-29T07:45:53.243Z,15.90
2023-03-29T07:48:39.285Z,22.60
2023-03-29T07:51:24.617Z,18.30
2023-03-29T07:54:17.802Z,20.00
2023-03-29T07:57:33.163Z,18.10
2023-03-29T08:00:19.934Z,19.30
2023-03-29T08:03:13.293Z,18.50
2023-03-29T08:05:57.082Z,21.70
2023-03-29T08:08:40.315Z,20.50
2023-03-29T08:11:27.664Z,17.00
2023-03-29T08:14:15.100Z,14.50
2023-03-29T08:17:11.495Z,16.20
2023-03-29T08:19:58.359Z,13.60
2023-03-29T08:22:41.387Z,12.60
2023-03-29T08:25:47.294Z,14.40
2023-03-29T08:28:30.201Z,14.30
2023-03-29T08:31:13.278Z,13.00
2023-03-29T08:33:58.345Z,13.40
2023-03-29T08:37:00.050Z,14.20
2023-03-29T08:39:53.189Z,12.80
2023-03-29T08:42:56.984Z,13.00
2023-03-29T08:45:53.433Z,10.30
2023-03-29T08:48:46.128Z,13.40
2023-03-29T08:51:40.699Z,14.30
2023-03-29T08:54:28.056Z,10.60
2023-03-29T08:57:51.822Z,14.50
2023-03-29T09:00:46.234Z,14.40
2023-03-29T09:03:45.533Z,11.50
2023-03-29T09:09:33.766Z,10.10
2023-03-29T09:12:48.645Z,11.70
2023-03-29T09:15:51.737Z,11.20
2023-03-29T09:18:53.852Z,13.00
2023-03-29T09:21:59.492Z,13.20
2023-03-29T09:25:01.478Z,9.20
2023-03-29T09:27:50.525Z,9.00
2023-03-29T09:30:55.501Z,12.60
2023-03-29T09:33:58.094Z,8.60
2023-03-29T09:36:51.209Z,10.70
2023-03-29T09:39:34.635Z,12.00
2023-03-29T09:42:24.221Z,10.40
2023-03-29T09:45:08.820Z,6.30
2023-03-29T09:48:12.658Z,7.90
2023-03-29T09:50:57.377Z,13.50
2023-03-29T09:53:40.642Z,10.30
2023-03-29T09:56:56.313Z,10.10
2023-03-29T09:59:42.788Z,10.20
2023-03-29T10:02:31.807Z,9.00
2023-03-29T10:05:16.305Z,14.20
2023-03-29T10:08:48.083Z,9.40
2023-03-29T10:11:35.541Z,9.10
2023-03-29T10:14:33.932Z,16.30
2023-03-29T10:17:22.348Z,9.00
2023-03-29T10:20:11.737Z,8.40
2023-03-29T10:22:57.730Z,9.70
2023-03-29T10:25:42.639Z,12.90
2023-03-29T10:28:28.036Z,10.00
2023-03-29T10:31:19.206Z,12.10
2023-03-29T10:34:06.555Z,11.50
2023-03-29T10:37:01.498Z,10.40
2023-03-29T10:39:46.097Z,7.00
2023-03-29T10:42:29.210Z,10.00
2023-03-29T10:45:27.915Z,10.00
2023-03-29T10:48:15.324Z,10.00
2023-03-29T10:51:01.531Z,10.10
2023-03-29T10:53:44.840Z,9.40
2023-03-29T10:56:50.788Z,9.00
2023-03-29T10:59:55.470Z,11.60
2023-03-29T11:03:00.443Z,8.80
2023-03-29T11:05:59.350Z,7.90
2023-03-29T11:08:57.879Z,7.20
2023-03-29T11:12:01.107Z,9.70
2023-03-29T11:14:56.991Z,8.50
2023-03-29T11:17:39.886Z,8.90
2023-03-29T11:20:52.662Z,9.60
2023-03-29T11:23:49.868Z,11.50
2023-03-29T11:26:42.035Z,10.60
2023-03-29T11:29:34.961Z,8.20
2023-03-29T11:32:42.846Z,9.90
2023-03-29T11:35:54.234Z,8.90
2023-03-29T11:39:00.096Z,7.20
2023-03-29T11:41:46.649Z,7.10
2023-03-29T11:44:35.717Z,10.50
2023-03-29T11:47:26.765Z,12.90
2023-03-29T11:50:16.278Z,11.30
2023-03-29T11:53:06.847Z,8.70
2023-03-29T11:55:51.694Z,16.30
2023-03-29T11:58:40.924Z,13.60
2023-03-29T12:01:34.658Z,7.60
2023-03-29T12:04:24.858Z,11.10
2023-03-29T12:07:24.619Z,9.80
2023-03-29T12:10:27.606Z,8.30
2023-03-29T12:16:23.286Z,8.60
2023-03-29T12:19:40.248Z,11.40
2023-03-29T12:22:24.871Z,12.10
2023-03-29T12:25:18.735Z,9.40
2023-03-29T12:28:40.986Z,12.30
2023-03-29T12:31:45.679Z,11.10
2023-03-29T12:34:56.108Z,9.10
2023-03-29T12:38:24.896Z,10.60
2023-03-29T12:41:28.482Z,9.50
2023-03-29T12:44:33.243Z,8.70
2023-03-29T12:47:44.602Z,7.10
2023-03-29T12:50:32.536Z,10.60
2023-03-29T12:53:28.591Z,13.80
2023-03-29T12:56:20.905Z,9.70
2023-03-29T13:02:01.315Z,9.50
2023-03-29T13:04:50.929Z,11.10
2023-03-29T13:07:47.468Z,11.10
2023-03-29T13:10:43.060Z,11.40
2023-03-29T13:13:41.581Z,14.10
2023-03-29T13:16:36.029Z,9.60
2023-03-29T13:19:38.869Z,10.60
2023-03-29T13:22:37.023Z,11.90
2023-03-29T13:25:28.705Z,6.10
2023-03-29T13:28:43.778Z,8.20
2023-03-29T13:31:26.707Z,11.30
2023-03-29T13:34:56.785Z,11.50
2023-03-29T13:38:07.488Z,12.50
2023-03-29T13:40:53.464Z,11.90
2023-03-29T13:43:49.753Z,13.50
2023-03-29T13:46:41.203Z,11.50
2023-03-29T13:49:27.681Z,14.60
2023-03-29T13:52:21.324Z,11.70
2023-03-29T13:55:16.052Z,9.60
2023-03-29T13:58:13.430Z,10.40
2023-03-29T14:01:07.488Z,6.40
2023-03-29T14:03:51.955Z,15.10
2023-03-29T14:06:38.562Z,9.50
2023-03-29T14:09:31.700Z,15.30
2023-03-29T14:12:15.778Z,11.90
2023-03-29T14:15:02.237Z,10.60
2023-03-29T14:17:45.281Z,10.00
2023-03-29T14:20:31.994Z,11.40
2023-03-29T14:23:22.034Z,9.40
2023-03-29T14:26:30.701Z,13.30
2023-03-29T14:29:13.866Z,13.40
2023-03-29T14:31:57.016Z,15.60
2023-03-29T14:34:40.605Z,13.60
2023-03-29T14:37:29.266Z,13.90
2023-03-29T14:40:19.307Z,14.60
2023-03-29T14:43:08.017Z,12.00
2023-03-29T14:45:51.192Z,10.80
2023-03-29T14:48:35.769Z,8.80
2023-03-29T14:51:20.205Z,11.40
2023-03-29T14:54:04.436Z,11.30
2023-03-29T14:56:48.863Z,11.60
2023-03-29T14:59:34.914Z,6.40
2023-03-29T15:02:29.852Z,10.30
2023-03-29T15:05:25.888Z,11.70
2023-03-29T15:08:14.885Z,18.00
2023-03-29T15:10:58.977Z,13.20
2023-03-29T15:13:44.076Z,12.70
2023-03-29T15:16:30.608Z,12.80
2023-03-29T15:19:18.236Z,11.60
2023-03-29T15:22:11.148Z,14.00
2023-03-29T15:24:54.159Z,11.10
2023-03-29T15:27:42.502Z,11.30
2023-03-29T15:30:39.006Z,9.40
2023-03-29T15:33:24.826Z,21.90
2023-03-29T15:36:10.389Z,10.20
2023-03-29T15:38:53.287Z,15.90
2023-03-29T15:41:36.412Z,10.60
2023-03-29T15:44:28.428Z,13.80
2023-03-29T15:47:12.761Z,12.60
2023-03-29T15:49:56.004Z,15.30
2023-03-29T15:52:38.938Z,12.20
2023-03-29T15:55:22.211Z,12.70
2023-03-29T15:58:05.258Z,15.90
2023-03-29T16:00:57.026Z,11.30
2023-03-29T16:03:40.376Z,12.60
2023-03-29T16:06:24.078Z,8.30
2023-03-29T16:09:08.781Z,8.50
2023-03-29T16:11:51.762Z,9.60
2023-03-29T16:14:34.780Z,8.50
2023-03-29T16:17:17.643Z,7.30
2023-03-29T16:20:01.461Z,9.30
2023-03-29T16:22:44.982Z,7.80
2023-03-29T16:25:28.081Z,4.80
2023-03-29T16:28:11.361Z,8.20
2023-03-29T16:30:54.223Z,6.70
2023-03-29T16:33:38.081Z,5.60
2023-03-29T16:36:21.299Z,8.90
2023-03-29T16:39:05.704Z,4.70
2023-03-29T16:41:50.393Z,7.80
2023-03-29T16:44:33.597Z,11.50
2023-03-29T16:47:16.640Z,5.50
2023-03-29T16:49:59.623Z,8.70
2023-03-29T16:52:42.849Z,6.70
2023-03-29T16:55:25.770Z,6.60
2023-03-29T16:58:09.717Z,8.30
2023-03-29T17:00:53.749Z,6.80
2023-03-29T17:03:37.614Z,7.80
2023-03-29T17:06:20.478Z,6.70
2023-03-29T17:09:05.295Z,8.40
2023-03-29T17:11:48.424Z,10.20
2023-03-29T17:14:33.537Z,8.40
2023-03-29T17:17:16.686Z,10.10
2023-03-29T17:20:02.574Z,11.00
2023-03-29T17:22:45.578Z,10.30
2023-03-29T17:25:28.427Z,8.80
2023-03-29T17:28:11.707Z,8.90
2023-03-29T17:30:54.881Z,11.30
2023-03-29T17:33:37.949Z,8.70
2023-03-29T17:36:24.257Z,10.10
2023-03-29T17:39:09.611Z,9.20
2023-03-29T17:41:53.544Z,9.20
2023-03-29T17:44:36.578Z,12.90
2023-03-29T17:47:19.574Z,13.60
2023-03-29T17:50:03.070Z,12.60
2023-03-29T17:52:46.018Z,12.80
2023-03-29T17:55:29.061Z,11.80
2023-03-29T17:58:12.355Z,16.60
2023-03-29T18:00:55.705Z,14.80
2023-03-29T18:03:39.106Z,14.20
2023-03-29T18:06:22.328Z,15.40
2023-03-29T18:09:05.714Z,13.00
2023-03-29T18:11:48.719Z,15.60
2023-03-29T18:14:31.695Z,14.20
2023-03-29T18:17:14.616Z,14.30
2023-03-29T18:19:57.529Z,15.70
2023-03-29T18:22:41.901Z,13.00
2023-03-29T18:25:24.818Z,15.90
2023-03-29T18:28:08.967Z,16.60
2023-03-29T18:30:52.450Z,18.40
2023-03-29T18:33:36.472Z,15.30
2023-03-29T18:36:20.000Z,18.40
2023-03-29T18:39:06.095Z,15.50
2023-03-29T18:41:48.974Z,13.70
2023-03-29T18:44:32.290Z,18.30
2023-03-29T18:47:15.322Z,20.10
2023-03-29T18:49:58.435Z,19.90
2023-03-29T18:52:42.082Z,13.80
2023-03-29T18:55:24.977Z,19.00
2023-03-29T18:58:08.348Z,18.60
2023-03-29T19:00:51.707Z,20.50
2023-03-29T19:03:35.796Z,21.30
2023-03-29T19:06:19.296Z,19.60
2023-03-29T19:09:04.497Z,19.00
2023-03-29T19:11:50.398Z,19.00
2023-03-29T19:14:33.273Z,19.40
2023-03-29T19:17:16.647Z,21.20
2023-03-29T19:20:00.569Z,19.80
2023-03-29T19:22:43.734Z,22.10
2023-03-29T19:25:26.714Z,20.20
2023-03-29T19:28:10.376Z,20.70
2023-03-29T19:30:53.700Z,24.00
2023-03-29T19:33:36.658Z,19.90
2023-03-29T19:36:19.609Z,20.30
2023-03-29T19:39:02.592Z,19.10
2023-03-29T19:41:45.564Z,22.70
2023-03-29T19:44:28.468Z,17.40
2023-03-29T19:47:11.577Z,17.90
2023-03-29T19:49:54.587Z,18.50
2023-03-29T19:52:37.608Z,21.20
2023-03-29T19:55:21.972Z,20.80
2023-03-29T19:58:06.502Z,20.90
2023-03-29T20:00:53.339Z,26.30
2023-03-29T20:03:36.776Z,22.60
2023-03-29T20:06:21.704Z,23.80
2023-03-29T20:09:05.410Z,25.10
2023-03-29T20:11:48.326Z,20.40
2023-03-29T20:14:31.562Z,19.30
2023-03-29T20:17:14.420Z,20.30
2023-03-29T20:19:57.556Z,19.50
2023-03-29T20:22:42.246Z,20.20
2023-03-29T20:25:25.992Z,17.10
2023-03-29T20:28:09.222Z,21.80
2023-03-29T20:30:53.622Z,18.80
2023-03-29T20:33:36.983Z,17.50
2023-03-29T20:36:23.260Z,20.70
2023-03-29T20:39:08.178Z,21.30
2023-03-29T20:41:51.762Z,21.00
2023-03-29T20:44:35.427Z,17.40
2023-03-29T20:47:19.415Z,20.50
2023-03-29T20:50:04.213Z,17.60
2023-03-29T20:52:47.186Z,19.10
2023-03-29T20:55:33.469Z,20.00
2023-03-29T20:58:16.510Z,20.10
2023-03-29T21:00:59.412Z,19.20
2023-03-29T21:03:42.391Z,19.70
2023-03-29T21:06:25.385Z,19.40
2023-03-29T21:09:08.713Z,22.00
2023-03-29T21:11:52.800Z,20.30
2023-03-29T21:14:35.680Z,20.70
2023-03-29T21:17:18.871Z,18.30
2023-03-29T21:20:02.923Z,18.30
2023-03-29T21:22:45.788Z,19.50
2023-03-29T21:25:29.151Z,19.30
2023-03-29T21:28:13.433Z,21.30
2023-03-29T21:30:56.512Z,19.30
2023-03-29T21:33:39.614Z,20.20
2023-03-29T21:36:23.987Z,19.90
2023-03-29T21:39:07.397Z,17.80
2023-03-29T21:41:50.237Z,25.10
2023-03-29T21:44:34.447Z,21.70
2023-03-29T21:47:17.504Z,21.20
2023-03-29T21:50:00.491Z,20.00
2023-03-29T21:52:43.517Z,18.30
2023-03-29T21:55:26.411Z,24.20
2023-03-29T21:58:09.868Z,26.30
2023-03-29T22:00:55.004Z,20.90
2023-03-29T22:03:38.667Z,24.20
2023-03-29T22:06:21.909Z,21.90
2023-03-29T22:09:05.309Z,23.30
2023-03-29T22:11:48.836Z,20.00
2023-03-29T22:14:36.464Z,25.10
2023-03-29T22:17:19.270Z,22.50
2023-03-29T22:20:05.079Z,23.50
2023-03-29T22:22:50.319Z,22.30
2023-03-29T22:25:33.404Z,26.10
2023-03-29T22:28:16.566Z,27.00
2023-03-29T22:31:05.267Z,24.70
2023-03-29T22:33:49.339Z,26.30
2023-03-29T22:36:32.438Z,26.20
2023-03-29T22:39:15.407Z,29.60
2023-03-29T22:41:58.499Z,26.30
2023-03-29T22:44:41.419Z,28.20
2023-03-29T22:47:24.348Z,26.10
2023-03-29T22:50:07.964Z,28.70
2023-03-29T22:52:51.221Z,25.40
2023-03-29T22:55:34.280Z,25.70
2023-03-29T22:58:17.186Z,28.10
2023-03-29T23:01:00.160Z,27.90
2023-03-29T23:03:43.256Z,31.80
2023-03-29T23:06:26.367Z,27.80
2023-03-29T23:09:09.668Z,25.90
2023-03-29T23:11:52.926Z,25.70
2023-03-29T23:14:35.909Z,21.90
2023-03-29T23:17:19.309Z,25.00
2023-03-29T23:20:04.489Z,23.40
2023-03-29T23:22:47.642Z,22.70
2023-03-29T23:25:31.578Z,23.30
2023-03-29T23:28:17.057Z,23.90
2023-03-29T23:31:10.651Z,24.50
2023-03-29T23:33:54.494Z,26.30
2023-03-29T23:36:37.425Z,22.40
2023-03-29T23:39:20.360Z,21.90
2023-03-29T23:42:03.805Z,21.10
2023-03-29T23:44:46.720Z,24.30
2023-03-29T23:47:29.992Z,19.00
2023-03-29T23:50:14.091Z,23.00
2023-03-29T23:52:58.460Z,23.70
2023-03-29T23:55:42.166Z,20.00
2023-03-29T23:58:25.022Z,20.30
